RLSO2: Arkansas River, Ralston, OK

Data processed at Sat Jul 14 2018 23:20


All information presented herein is the property of the government of the United States of America and may be revised or deleted at any time without prior notice.
Dissemination of this information without the expressed written consent of the Public Affairs Office, Tulsa District U.S. Army Corps of Engineers is strictly prohibited.
These data are gathered electronically and, as presented, have not undergone any form of quality control. These data are not guaranteed to be valid or correct.
Go to home page.
Go to station list.

Upstream stations:

Downstream station:
Previous Day
Next Day
Current Day
    
SHEF ID:       RLSO2     Arkansas River at Ralston, OK
STATION TYPE:  

               PRECIP     STAGE  RIV-FLOW  BAT-LOAD
                   in        ft       cfs      volt
              Ccp-Rev   Ccp-Rev   Ccp-Rev   Ccp-Rev
(US/Central)
07/12 00:00      0.00      5.27      4659     12.65
07/12 01:00      0.00      5.26      4630     12.65
07/12 02:00      0.00      5.25      4601     12.65
07/12 03:00      ----      ----      ----      ----
07/12 04:00      0.00      5.21      4485     12.65
07/12 05:00      0.00      5.17      4370     12.65
07/12 06:00      0.00      5.13      4256     12.57
07/12 07:00      0.00      5.09      4144     12.57
07/12 08:00      0.00      5.03      3976     12.65
07/12 09:00      0.00      4.99      3865     12.97
07/12 10:00      0.00      4.94      3729     13.37
07/12 11:00      0.00      4.87      3542     13.60
07/12 12:00      0.00      4.84      3463     13.53
07/12 13:00      0.00      4.76      3257     13.53
07/12 14:00      0.00      4.72      3156     13.53
07/12 15:00      0.00      4.72      3156     13.53
07/12 16:00      0.00      4.78      3308     13.44
07/12 17:00      0.00      4.81      3385     13.05
07/12 18:00      0.00      4.83      3437     12.97
07/12 19:00      0.00      4.91      3648     12.89
07/12 20:00      0.00      4.97      3810     12.81
07/12 21:00      0.00      5.02      3948     12.65
07/12 22:00      0.00      5.05      4032     12.65
07/12 23:00      0.00      5.04      4004     12.65